Vollmers Atmospheric Data: 05/15/2019 Summary  Detailed Graphs  Station List

  Temperature     Wind Precipitation Visibility
Timestamp Air Wet
Bulb
Dew-
point
24-hr
Max
24-hr
Min
Relative
Humidity
Atmospheric
Pressure
Avg
Speed
Avg
Dir
Spot
Speed
Spot
Dir
Max
Speed
Max
Dir
  Rate Situation Start End 1 hr 3 hr 6 hr 12 hr 24 hr   Situation
Date Time °F °F °F °F °F % in Hg mph ° mph ° mph ° Y/N in/hr text Date Time Date Time in in in in in mi text
05/15/2019 12:13 AM 59.18 54.50 50.90 70.16 51.44 74.0 Not Reported 1.34 NW 1.12 N 5.37 NW No 0.000 No Precipitation 04/20/2019 02:53 PM 04/20/2019 02:58 PM 0.000 0.000 0.000 0.000 0.000 Not Reported Not Reported
05/15/2019 12:28 AM 59.54 54.32 50.54 70.16 51.44 72.0 Not Reported 3.80 W 4.03 W 4.25 W No 0.000 No Precipitation 04/20/2019 02:53 PM 04/20/2019 02:58 PM 0.000 0.000 0.000 0.000 0.000 Not Reported Not Reported
05/15/2019 12:43 AM 59.18 54.50 50.90 70.16 51.44 74.0 Not Reported 3.13 NW 2.46 N 4.47 NW No 0.000 No Precipitation 04/20/2019 02:53 PM 04/20/2019 02:58 PM 0.000 0.000 0.000 0.000 0.000 Not Reported Not Reported
05/15/2019 12:58 AM 59.36 54.50 51.08 70.16 51.44 73.0 Not Reported 4.92 W 6.04 W 4.25 NW No 0.000 No Precipitation 04/20/2019 02:53 PM 04/20/2019 02:58 PM 0.000 0.000 0.000 0.000 0.000 Not Reported Not Reported
05/15/2019 01:13 AM 59.72 54.32 50.18 70.16 51.44 70.0 Not Reported 6.71 W 5.82 W 6.93 W No 0.000 No Precipitation 04/20/2019 02:53 PM 04/20/2019 02:58 PM 0.000 0.000 0.000 0.000 0.000 Not Reported Not Reported
05/15/2019 01:28 AM 59.18 54.32 50.54 70.16 51.44 72.0 Not Reported 5.59 W 5.37 W 7.61 W No 0.000 No Precipitation 04/20/2019 02:53 PM 04/20/2019 02:58 PM 0.000 0.000 0.000 0.000 0.000 Not Reported Not Reported
05/15/2019 01:43 AM 58.64 54.14 50.72 70.16 51.44 74.0 Not Reported 4.70 NW 2.91 N 7.83 W No 0.000 No Precipitation 04/20/2019 02:53 PM 04/20/2019 02:58 PM 0.000 0.000 0.000 0.000 0.000 Not Reported Not Reported
05/15/2019 01:58 AM 59.00 54.14 50.54 70.16 51.44 73.0 Not Reported 6.26 W 5.59 W 8.05 W No 0.000 No Precipitation 04/20/2019 02:53 PM 04/20/2019 02:58 PM 0.000 0.000 0.000 0.000 0.000 Not Reported Not Reported
05/15/2019 02:13 AM 60.26 53.60 48.38 70.16 51.44 64.0 Not Reported 4.92 SW 3.80 SW 7.61 SW No 0.000 No Precipitation 04/20/2019 02:53 PM 04/20/2019 02:58 PM 0.000 0.000 0.000 0.000 0.000 Not Reported Not Reported
05/15/2019 02:28 AM 58.46 53.78 50.00 70.16 51.44 73.0 Not Reported 3.36 NW 2.24 W 5.82 SW No 0.000 No Precipitation 04/20/2019 02:53 PM 04/20/2019 02:58 PM 0.000 0.000 0.000 0.000 0.000 Not Reported Not Reported
05/15/2019 02:43 AM 58.46 53.78 50.18 70.16 51.44 74.0 Not Reported 0.00 SW 0.22 S 2.24 NW No 0.000 No Precipitation 04/20/2019 02:53 PM 04/20/2019 02:58 PM 0.000 0.000 0.000 0.000 0.000 Not Reported Not Reported
05/15/2019 02:58 AM 57.92 53.78 50.54 70.16 51.44 76.0 Not Reported 2.68 SW 2.46 SW 4.03 W No 0.000 No Precipitation 04/20/2019 02:53 PM 04/20/2019 02:58 PM 0.000 0.000 0.000 0.000 0.000 Not Reported Not Reported
05/15/2019 03:13 AM 57.92 53.42 49.82 70.16 51.44 74.0 Not Reported 2.91 W 2.46 NW 3.80 SW No 0.000 No Precipitation 04/20/2019 02:53 PM 04/20/2019 02:58 PM 0.000 0.000 0.000 0.000 0.000 Not Reported Not Reported
05/15/2019 03:28 AM 58.10 53.60 50.00 70.16 51.44 74.0 Not Reported 2.01 NW 3.58 NW 3.58 W No 0.000 No Precipitation 04/20/2019 02:53 PM 04/20/2019 02:58 PM 0.000 0.000 0.000 0.000 0.000 Not Reported Not Reported
05/15/2019 03:43 AM 57.56 53.42 50.18 70.16 51.44 76.0 Not Reported 1.12 E 0.22 NE 2.68 W No 0.000 No Precipitation 04/20/2019 02:53 PM 04/20/2019 02:58 PM 0.000 0.000 0.000 0.000 0.000 Not Reported Not Reported
05/15/2019 03:58 AM 57.20 53.42 50.36 70.16 51.44 78.0 Not Reported 1.57 W 0.89 W 2.01 W No 0.000 No Precipitation 04/20/2019 02:53 PM 04/20/2019 02:58 PM 0.000 0.000 0.000 0.000 0.000 Not Reported Not Reported
05/15/2019 04:13 AM 57.20 53.42 50.36 70.16 51.44 78.0 Not Reported 1.12 NW 0.89 N 3.58 W No 0.000 No Precipitation 04/20/2019 02:53 PM 04/20/2019 02:58 PM 0.000 0.000 0.000 0.000 0.000 Not Reported Not Reported
05/15/2019 04:28 AM 57.20 53.42 50.54 70.16 51.44 78.0 Not Reported 0.89 SE 0.45 NE 2.68 SW No 0.000 No Precipitation 04/20/2019 02:53 PM 04/20/2019 02:58 PM 0.000 0.000 0.000 0.000 0.000 Not Reported Not Reported
05/15/2019 04:43 AM 57.38 53.42 50.18 70.16 51.44 76.0 Not Reported 1.12 SW 0.89 SW 0.67 NW No 0.000 No Precipitation 04/20/2019 02:53 PM 04/20/2019 02:58 PM 0.000 0.000 0.000 0.000 0.000 Not Reported Not Reported
05/15/2019 04:58 AM 56.84 53.24 50.54 70.16 51.44 79.0 Not Reported 0.45 NE 0.22 NE 1.57 SW No 0.000 No Precipitation 04/20/2019 02:53 PM 04/20/2019 02:58 PM 0.000 0.000 0.000 0.000 0.000 Not Reported Not Reported
05/15/2019 05:13 AM 56.30 53.42 51.26 70.16 51.44 83.0 Not Reported 2.01 S 2.01 W 1.34 S No 0.000 No Precipitation 04/20/2019 02:53 PM 04/20/2019 02:58 PM 0.000 0.000 0.000 0.000 0.000 Not Reported Not Reported
05/15/2019 05:28 AM 55.58 53.42 51.80 70.16 51.44 86.0 Not Reported 1.34 SW 1.12 S 2.91 W No 0.000 No Precipitation 04/20/2019 02:53 PM 04/20/2019 02:58 PM 0.000 0.000 0.000 0.000 0.000 Not Reported Not Reported
05/15/2019 05:43 AM 55.76 53.42 51.80 70.16 51.44 86.0 Not Reported 0.67 W 1.57 W 2.46 W No 0.000 No Precipitation 04/20/2019 02:53 PM 04/20/2019 02:58 PM 0.000 0.000 0.000 0.000 0.000 Not Reported Not Reported
05/15/2019 05:58 AM 56.12 53.60 51.62 70.16 51.44 84.0 Not Reported 2.91 W 3.13 W 4.03 W No 0.000 No Precipitation 04/20/2019 02:53 PM 04/20/2019 02:58 PM 0.000 0.000 0.000 0.000 0.000 Not Reported Not Reported
05/15/2019 06:13 AM 55.76 53.42 51.44 70.16 51.44 85.0 Not Reported 3.80 SW 4.03 W 4.03 W No 0.000 No Precipitation 04/20/2019 02:53 PM 04/20/2019 02:58 PM 0.000 0.000 0.000 0.000 0.000 Not Reported Not Reported
05/15/2019 06:28 AM 55.58 53.24 51.26 70.16 51.44 85.0 Not Reported 4.70 W 4.92 SW 5.82 W No 0.000 No Precipitation 04/20/2019 02:53 PM 04/20/2019 02:58 PM 0.000 0.000 0.000 0.000 0.000 Not Reported Not Reported
05/15/2019 06:43 AM 55.04 53.06 51.44 70.16 51.62 87.0 Not Reported 4.25 NW 4.70 NW 6.04 W No 0.000 No Precipitation 04/20/2019 02:53 PM 04/20/2019 02:58 PM 0.000 0.000 0.000 0.000 0.000 Not Reported Not Reported
05/15/2019 06:58 AM 55.58 53.24 51.44 70.16 51.62 85.0 Not Reported 9.17 W 10.07 W 6.49 W No 0.000 No Precipitation 04/20/2019 02:53 PM 04/20/2019 02:58 PM 0.000 0.000 0.000 0.000 0.000 Not Reported Not Reported
05/15/2019 07:13 AM 56.48 53.42 51.08 70.16 51.62 82.0 Not Reported 6.26 W 6.93 W 9.40 W No 0.000 No Precipitation 04/20/2019 02:53 PM 04/20/2019 02:58 PM 0.000 0.000 0.000 0.000 0.000 Not Reported Not Reported
05/15/2019 07:28 AM 56.30 53.24 50.90 70.16 51.62 82.0 Not Reported 2.91 W 2.68 SW 7.61 W No 0.000 No Precipitation 04/20/2019 02:53 PM 04/20/2019 02:58 PM 0.000 0.000 0.000 0.000 0.000 Not Reported Not Reported
05/15/2019 07:43 AM 56.12 53.42 51.44 70.16 52.16 84.0 Not Reported 3.80 W 6.04 W 5.59 W No 0.000 No Precipitation 04/20/2019 02:53 PM 04/20/2019 02:58 PM 0.000 0.000 0.000 0.000 0.000 Not Reported Not Reported
05/15/2019 07:58 AM 56.30 53.42 51.26 70.16 52.16 82.0 Not Reported 6.26 W 6.49 W 6.26 W No 0.000 No Precipitation 04/20/2019 02:53 PM 04/20/2019 02:58 PM 0.000 0.000 0.000 0.000 0.000 Not Reported Not Reported
05/15/2019 08:13 AM 56.12 53.42 51.26 70.16 53.78 84.0 Not Reported 6.26 W 6.49 W 7.38 W No 0.000 No Precipitation 04/20/2019 02:53 PM 04/20/2019 02:58 PM 0.000 0.000 0.000 0.000 0.000 Not Reported Not Reported
05/15/2019 08:28 AM 56.84 53.60 51.26 70.16 54.32 81.0 Not Reported 6.04 W 4.47 W 7.83 W No 0.000 No Precipitation 04/20/2019 02:53 PM 04/20/2019 02:58 PM 0.000 0.000 0.000 0.000 0.000 Not Reported Not Reported
05/15/2019 08:43 AM 57.38 54.14 51.62 70.16 55.04 80.0 Not Reported 8.28 SE 4.92 SE 13.42 SE No 0.000 No Precipitation 04/20/2019 02:53 PM 04/20/2019 02:58 PM 0.000 0.000 0.000 0.000 0.000 Not Reported Not Reported
05/15/2019 08:58 AM 56.30 54.14 52.52 70.16 55.04 87.0 Not Reported 6.04 E 8.50 NE 12.97 SE Yes 0.128 Rain Moderate 05/15/2019 12:50 AM   0.016 0.016 0.016 0.016 0.016 Not Reported Not Reported
05/15/2019 09:13 AM 55.76 53.42 51.62 70.16 55.04 85.0 Not Reported 9.84 SE 9.40 E 20.80 E Yes 0.128 Rain Moderate 05/15/2019 12:50 AM   0.059 0.059 0.059 0.059 0.059 Not Reported Not Reported
05/15/2019 09:28 AM 55.04 53.06 51.80 70.16 54.86 88.0 Not Reported 4.03 E 4.25 E 14.32 SE Yes 0.085 Rain Moderate 05/15/2019 12:50 AM   0.075 0.075 0.075 0.075 0.075 Not Reported Not Reported
05/15/2019 09:43 AM 54.32 52.88 51.80 70.16 54.14 90.0 Not Reported 5.59 E 6.49 E 11.41 E Yes 0.085 Rain Moderate 05/15/2019 12:50 AM   0.091 0.091 0.091 0.091 0.091 Not Reported Not Reported
05/15/2019 09:58 AM 53.60 51.98 50.90 70.16 53.60 90.0 Not Reported 9.62 E 11.18 SE 9.62 E Yes 0.128 Rain Moderate 05/15/2019 12:50 AM   0.102 0.122 0.122 0.122 0.122 Not Reported Not Reported
05/15/2019 10:13 AM 53.60 52.34 51.26 70.16 53.24 92.0 Not Reported 3.80 E 5.59 E 8.05 SE Yes 0.227 Rain Moderate 05/15/2019 12:50 AM   0.110 0.165 0.165 0.165 0.165 Not Reported Not Reported
05/15/2019 10:28 AM 53.42 52.34 51.62 70.16 53.06 93.0 Not Reported 6.26 E 8.72 E 7.83 NE Yes 0.128 Rain Moderate 05/15/2019 12:50 AM   0.138 0.209 0.209 0.209 0.209 Not Reported Not Reported
05/15/2019 10:43 AM 53.06 52.16 51.44 70.16 52.88 94.0 Not Reported 6.26 E 3.80 E 8.95 E Yes 0.085 Rain Moderate 05/15/2019 12:50 AM   0.150 0.244 0.244 0.244 0.244 Not Reported Not Reported
05/15/2019 10:58 AM 53.42 52.70 51.98 70.16 52.88 94.0 Not Reported 1.12 N 0.22 E 11.41 E Yes 0.085 Rain Moderate 05/15/2019 12:50 AM   0.154 0.276 0.276 0.276 0.276 Not Reported Not Reported
05/15/2019 11:13 AM 53.78 53.06 52.52 70.16 52.88 95.0 Not Reported 3.80 E 3.36 NE 7.16 E Yes 0.085 Rain Moderate 05/15/2019 12:50 AM   0.126 0.295 0.295 0.295 0.295 Not Reported Not Reported
05/15/2019 11:28 AM 53.42 52.52 51.98 70.16 52.88 94.0 Not Reported 7.83 E 6.26 NE 6.93 NE Yes 0.085 Rain Moderate 05/15/2019 12:50 AM   0.110 0.323 0.323 0.323 0.323 Not Reported Not Reported
05/15/2019 11:43 AM 53.78 52.70 51.80 70.16 52.88 93.0 Not Reported 8.50 E 5.59 E 10.29 E Yes 0.085 Rain Moderate 05/15/2019 12:50 AM   0.102 0.350 0.350 0.350 0.350 Not Reported Not Reported
05/15/2019 11:58 AM 53.96 52.88 51.98 70.16 52.88 92.0 Not Reported 6.93 E 8.95 E 9.62 E Yes 0.128 Rain Moderate 05/15/2019 12:50 AM   0.110 0.370 0.382 0.382 0.382 Not Reported Not Reported
05/15/2019 12:13 PM 54.14 53.06 52.16 70.16 52.88 93.0 Not Reported 3.36 NE 7.16 E 11.18 SE Yes 0.128 Rain Moderate 05/15/2019 12:50 AM   0.118 0.354 0.413 0.413 0.413 Not Reported Not Reported
05/15/2019 12:28 PM 53.96 52.70 51.80 70.16 52.88 92.0 Not Reported 6.04 E 5.59 NE 10.07 E Yes 0.128 Rain Moderate 05/15/2019 12:50 AM   0.130 0.374 0.453 0.453 0.453 Not Reported Not Reported
05/15/2019 12:43 PM 53.96 52.88 51.98 70.16 52.88 92.0 Not Reported 8.05 E 5.59 E 9.62 E Yes 0.184 Rain Moderate 05/15/2019 12:50 AM   0.134 0.390 0.480 0.480 0.480 Not Reported Not Reported
05/15/2019 12:58 PM 54.32 53.06 51.98 70.16 52.88 91.0 Not Reported 7.38 E 8.28 E 11.63 SE Yes 0.184 Rain Moderate 05/15/2019 12:50 AM   0.130 0.394 0.516 0.516 0.516 Not Reported Not Reported
05/15/2019 01:13 PM 54.14 52.88 51.98 70.16 52.88 92.0 Not Reported 7.16 E 6.71 E 15.21 E Yes 0.085 Rain Moderate 05/15/2019 12:50 AM   0.154 0.394 0.567 0.567 0.567 Not Reported Not Reported
05/15/2019 01:28 PM 54.32 53.24 51.98 70.16 52.88 92.0 Not Reported 4.47 E 2.91 E 13.20 E Yes 0.128 Rain Moderate 05/15/2019 12:50 AM   0.157 0.394 0.610 0.610 0.610 Not Reported Not Reported
05/15/2019 01:43 PM 54.32 53.24 52.52 70.16 52.88 93.0 Not Reported 6.49 NE 5.82 E 7.83 E Yes 0.128 Rain Moderate 05/15/2019 12:50 AM   0.165 0.409 0.650 0.650 0.650 Not Reported Not Reported
05/15/2019 01:58 PM 54.32 53.06 52.16 70.16 52.88 92.0 Not Reported 4.92 E 2.46 NE 8.95 SE Yes 0.043 Rain Slight 05/15/2019 12:50 AM   0.165 0.409 0.685 0.685 0.685 Not Reported Not Reported
05/15/2019 02:13 PM 54.32 53.42 52.52 70.16 52.88 93.0 Not Reported 2.46 NE 3.36 N 9.84 E Yes 0.184 Rain Moderate 05/15/2019 12:50 AM   0.169 0.441 0.740 0.740 0.740 Not Reported Not Reported
05/15/2019 02:28 PM 55.04 53.96 53.06 70.16 52.88 92.0 Not Reported 8.28 E 6.26 NE 9.40 SE Yes 0.128 Rain Moderate 05/15/2019 12:50 AM   0.154 0.441 0.764 0.764 0.764 Not Reported Not Reported
05/15/2019 02:43 PM 55.76 54.68 53.78 70.16 52.88 93.0 Not Reported 4.03 NE 4.92 E 10.29 E Yes 0.085 Rain Moderate 05/15/2019 12:50 AM   0.134 0.433 0.787 0.787 0.787 Not Reported Not Reported
05/15/2019 02:58 PM 55.58 53.96 52.88 70.16 52.88 90.0 Not Reported 6.49 E 5.82 E 8.95 E No 0.000 No Precipitation 05/15/2019 12:50 AM 05/15/2019 06:56 AM 0.130 0.429 0.799 0.811 0.811 Not Reported Not Reported
05/15/2019 03:13 PM 55.94 54.14 52.88 70.16 52.88 89.0 Not Reported 5.82 E 6.26 E 11.63 S Yes 0.043 Rain Slight 05/15/2019 07:07 AM   0.083 0.413 0.768 0.827 0.827 Not Reported Not Reported
05/15/2019 03:28 PM 55.58 54.32 53.42 70.16 52.88 92.0 Not Reported 5.14 NE 4.70 N 7.83 SE Yes 0.043 Rain Slight 05/15/2019 07:07 AM   0.091 0.402 0.780 0.850 0.850 Not Reported Not Reported
05/15/2019 03:43 PM 55.22 53.78 52.70 70.16 52.88 90.0 Not Reported 7.16 E 5.37 NE 14.32 E Yes 0.043 Rain Slight 05/15/2019 07:07 AM   0.091 0.394 0.783 0.878 0.878 Not Reported Not Reported
05/15/2019 03:58 PM 55.22 53.78 52.70 70.16 52.88 91.0 Not Reported 3.58 SE 3.58 SE 11.63 E Yes 0.227 Rain Moderate 05/15/2019 07:07 AM   0.122 0.421 0.811 0.937 0.937 Not Reported Not Reported
05/15/2019 04:13 PM 54.86 53.60 52.88 70.16 52.88 92.0 Not Reported 8.05 E 6.04 NE 10.74 E Yes 0.184 Rain Moderate 05/15/2019 07:07 AM   0.150 0.409 0.807 0.976 0.976 Not Reported Not Reported
05/15/2019 04:28 PM 55.04 53.78 53.06 70.16 52.88 93.0 Not Reported 6.04 E 6.93 E 10.51 E Yes 0.184 Rain Moderate 05/15/2019 07:07 AM   0.161 0.402 0.803 1.016 1.016 Not Reported Not Reported
05/15/2019 04:43 PM 54.86 53.96 53.24 69.44 52.88 94.0 Not Reported 4.70 NE 4.70 E 15.43 E Yes 0.128 Rain Moderate 05/15/2019 07:07 AM   0.201 0.421 0.831 1.079 1.079 Not Reported Not Reported
05/15/2019 04:58 PM 55.40 54.50 53.78 69.44 52.88 94.0 Not Reported 3.58 NE 3.36 NE 10.51 N Yes 0.085 Rain Moderate 05/15/2019 07:07 AM   0.169 0.421 0.831 1.110 1.110 Not Reported Not Reported
05/15/2019 05:13 PM 55.04 53.96 53.24 69.26 52.88 93.0 Not Reported 4.03 NE 8.28 SE 10.07 E Yes 0.043 Rain Slight 05/15/2019 07:07 AM   0.157 0.394 0.839 1.134 1.134 Not Reported Not Reported
05/15/2019 05:28 PM 55.04 53.96 53.24 69.26 52.88 93.0 Not Reported 6.49 E 5.14 E 8.28 SE Yes 0.184 Rain Moderate 05/15/2019 07:07 AM   0.150 0.402 0.843 1.165 1.165 Not Reported Not Reported
05/15/2019 05:43 PM 55.04 53.96 53.06 69.08 52.88 92.0 Not Reported 5.37 SE 4.92 E 7.61 E Yes 0.227 Rain Moderate 05/15/2019 07:07 AM   0.154 0.441 0.882 1.232 1.232 Not Reported Not Reported
05/15/2019 05:58 PM 55.04 53.78 53.06 69.08 52.88 92.0 Not Reported 4.92 E 4.47 NE 8.28 S Yes 0.043 Rain Slight 05/15/2019 07:07 AM   0.154 0.449 0.878 1.264 1.264 Not Reported Not Reported
05/15/2019 06:13 PM 55.04 53.78 52.88 69.08 52.88 92.0 Not Reported 4.70 E 6.93 E 7.61 E Yes 0.184 Rain Moderate 05/15/2019 07:07 AM   0.165 0.472 0.886 1.303 1.303 Not Reported Not Reported
05/15/2019 06:28 PM 54.86 53.96 53.06 69.08 52.88 93.0 Not Reported 2.68 NE 3.13 NE 8.72 E Yes 0.227 Rain Moderate 05/15/2019 07:07 AM   0.189 0.504 0.906 1.358 1.358 Not Reported Not Reported
05/15/2019 06:43 PM 54.86 53.60 52.70 68.72 52.88 92.0 Not Reported 6.93 E 9.40 E 9.84 E Yes 0.184 Rain Moderate 05/15/2019 07:07 AM   0.165 0.524 0.917 1.402 1.402 Not Reported Not Reported
05/15/2019 06:58 PM 54.50 53.42 52.70 68.54 52.88 93.0 Not Reported 3.36 E 2.68 E 11.86 E Yes 0.326 Rain Heavy 05/15/2019 07:07 AM   0.217 0.543 0.965 1.480 1.480 Not Reported Not Reported
05/15/2019 07:13 PM 54.32 53.60 52.88 68.36 52.88 94.0 Not Reported 4.47 E 4.25 SE 8.72 E Yes 0.184 Rain Moderate 05/15/2019 07:07 AM   0.240 0.567 0.976 1.539 1.539 Not Reported Not Reported
05/15/2019 07:28 PM 54.50 53.60 53.06 68.36 52.88 95.0 Not Reported 2.24 NE 3.58 NE 5.37 E Yes 0.184 Rain Moderate 05/15/2019 07:07 AM   0.244 0.587 0.988 1.598 1.598 Not Reported Not Reported
05/15/2019 07:43 PM 54.32 53.60 53.06 67.82 52.88 95.0 Not Reported 6.26 E 1.57 NE 4.92 E Yes 0.227 Rain Moderate 05/15/2019 07:07 AM   0.268 0.591 1.016 1.665 1.665 Not Reported Not Reported
05/15/2019 07:58 PM 54.32 53.60 53.06 67.64 52.88 95.0 Not Reported 7.83 E 6.93 E 8.95 E Yes 0.184 Rain Moderate 05/15/2019 07:07 AM   0.240 0.610 1.035 1.717 1.717 Not Reported Not Reported
05/15/2019 08:13 PM 54.68 53.60 52.70 67.28 52.88 93.0 Not Reported 5.37 E 7.16 E 16.11 E Yes 0.184 Rain Moderate 05/15/2019 07:07 AM   0.220 0.630 1.024 1.764 1.764 Not Reported Not Reported
05/15/2019 08:28 PM 54.68 53.60 52.88 66.92 52.88 93.0 Not Reported 6.93 E 8.05 SE 11.63 E Yes 0.369 Rain Heavy 05/15/2019 07:07 AM   0.228 0.669 1.071 1.835 1.835 Not Reported Not Reported
05/15/2019 08:43 PM 55.04 53.96 53.24 66.20 52.88 93.0 Not Reported 6.49 E 12.75 E 13.42 E Yes 0.269 Rain Moderate 05/15/2019 07:07 AM   0.240 0.673 1.122 1.909 1.909 Not Reported Not Reported
05/15/2019 08:58 PM 55.22 54.14 53.42 65.48 52.88 93.0 Not Reported 12.08 E 14.54 E 17.00 E Yes 0.326 Rain Heavy 05/15/2019 07:07 AM   0.272 0.728 1.177 1.972 1.992 Not Reported Not Reported
05/15/2019 09:13 PM 55.04 53.96 53.24 65.30 52.88 93.0 Not Reported 2.68 E 11.18 E 13.87 SE Yes 0.411 Rain Heavy 05/15/2019 07:07 AM   0.315 0.772 1.252 2.020 2.079 Not Reported Not Reported
05/15/2019 09:28 PM 55.04 53.78 52.88 64.76 52.88 92.0 Not Reported 10.07 E 7.83 E 14.09 E Yes 0.269 Rain Moderate 05/15/2019 07:07 AM   0.323 0.799 1.303 2.083 2.157 Not Reported Not Reported
05/15/2019 09:43 PM 54.68 53.60 52.88 64.76 52.88 93.0 Not Reported 6.04 E 4.03 E 14.54 E Yes 0.468 Rain Heavy 05/15/2019 07:07 AM   0.335 0.846 1.370 2.154 2.248 Not Reported Not Reported
05/15/2019 09:58 PM 54.68 53.60 52.70 63.68 52.88 93.0 Not Reported 13.20 E 9.84 SE 14.76 E Yes 0.369 Rain Heavy 05/15/2019 07:07 AM   0.343 0.850 1.398 2.213 2.335 Not Reported Not Reported
05/15/2019 10:13 PM 54.50 53.60 52.88 63.50 52.88 93.0 Not Reported 11.41 E 12.30 SE 11.18 E Yes 0.269 Rain Moderate 05/15/2019 07:07 AM   0.362 0.898 1.461 2.272 2.441 Not Reported Not Reported
05/15/2019 10:28 PM 54.68 53.60 52.88 62.78 52.88 93.0 Not Reported 10.07 E 10.51 E 18.12 E Yes 0.411 Rain Heavy 05/15/2019 07:07 AM   0.402 0.957 1.539 2.346 2.559 Not Reported Not Reported
05/15/2019 10:43 PM 54.50 53.42 52.70 62.06 52.88 93.0 Not Reported 5.82 E 6.04 NE 15.66 E Yes 0.468 Rain Heavy 05/15/2019 07:07 AM   0.421 1.004 1.594 2.429 2.669 Not Reported Not Reported
05/15/2019 10:58 PM 54.50 53.42 52.88 61.34 52.88 93.0 Not Reported 7.61 E 5.82 E 13.42 E Yes 0.184 Rain Moderate 05/15/2019 07:07 AM   0.421 1.039 1.646 2.484 2.760 Not Reported Not Reported
05/15/2019 11:13 PM 54.14 53.24 52.52 60.98 52.88 94.0 Not Reported 10.96 E 6.49 E 10.29 E Yes 0.609 Rain Heavy 05/15/2019 07:07 AM   0.433 1.114 1.744 2.583 2.878 Not Reported Not Reported
05/15/2019 11:28 PM 54.32 53.24 52.52 60.62 52.88 93.0 Not Reported 12.30 E 15.66 E 16.78 E Yes 0.510 Rain Heavy 05/15/2019 07:07 AM   0.402 1.130 1.795 2.642 2.961 Not Reported Not Reported
05/15/2019 11:43 PM 54.14 53.24 52.34 60.62 52.88 93.0 Not Reported 5.82 E 11.18 NE 14.32 E Yes 0.269 Rain Moderate 05/15/2019 07:07 AM   0.354 1.122 1.795 2.681 3.031 Not Reported Not Reported
05/15/2019 11:58 PM 53.96 53.06 52.52 60.62 52.88 94.0 Not Reported 4.92 NE 6.93 NE 11.18 NE Yes 0.553 Rain Heavy 05/15/2019 07:07 AM   0.409 1.177 1.902 2.783 3.169 Not Reported Not Reported